Time;durP1;ratioP1;P1;durP2;ratioP2;P2;SDS_P1;SDS_P2;PMS_P1;PMS_P2;Temp;Humidity;BMP_temperature;BMP_pressure;BME280_temperature;BME280_humidity;BME280_pressure;Samples;Min_cycle;Max_cycle;Signal;HPM_P1;HPM_P2
2021/10/21 00:00:55;;;;;;;5.20;4.37;;;18.60;99.90;;;;;;4995948;28;20474;-65
2021/10/21 00:03:23;;;;;;;5.23;4.70;;;18.60;99.90;;;;;;4998171;28;20816;-65
2021/10/21 00:05:50;;;;;;;5.10;4.57;;;18.50;99.90;;;;;;5008466;28;20995;-65
2021/10/21 00:08:18;;;;;;;8.80;6.40;;;18.50;99.90;;;;;;5013118;28;20551;-65
2021/10/21 00:10:46;;;;;;;5.27;4.57;;;18.50;99.90;;;;;;5005027;28;20951;-65
2021/10/21 00:13:14;;;;;;;5.53;5.13;;;18.50;99.90;;;;;;5005039;28;20508;-65
2021/10/21 00:15:43;;;;;;;4.80;4.40;;;18.50;99.90;;;;;;5007457;28;20472;-65
2021/10/21 00:18:16;;;;;;;6.17;5.57;;;18.40;99.90;;;;;;4998680;28;20549;-65
2021/10/21 00:20:44;;;;;;;8.10;5.33;;;18.50;99.90;;;;;;4995477;28;20485;-66
2021/10/21 00:23:11;;;;;;;6.00;4.50;;;18.50;99.90;;;;;;5001044;28;20971;-65
2021/10/21 00:25:38;;;;;;;4.97;4.57;;;18.50;99.90;;;;;;5005322;28;20482;-65
2021/10/21 00:28:05;;;;;;;5.80;4.80;;;18.50;99.90;;;;;;4995232;28;20483;-65
2021/10/21 00:30:32;;;;;;;5.23;4.83;;;18.40;99.90;;;;;;5008395;28;20480;-65
2021/10/21 00:32:59;;;;;;;4.93;4.50;;;18.50;99.90;;;;;;5014246;28;20491;-65
2021/10/21 00:35:26;;;;;;;5.20;4.80;;;18.50;99.90;;;;;;5021945;28;20522;-65
2021/10/21 00:37:54;;;;;;;6.33;5.83;;;18.50;99.90;;;;;;5027316;28;20457;-65
2021/10/21 00:40:22;;;;;;;5.23;4.83;;;18.50;99.90;;;;;;5015736;28;20473;-65
2021/10/21 00:42:49;;;;;;;6.10;5.50;;;18.50;99.90;;;;;;5019010;28;20464;-65
2021/10/21 00:45:16;;;;;;;4.87;4.47;;;18.50;99.90;;;;;;5029187;28;20970;-65
2021/10/21 00:47:43;;;;;;;6.37;4.77;;;18.50;99.90;;;;;;5014529;28;20994;-64
2021/10/21 00:50:10;;;;;;;5.17;4.77;;;18.50;99.90;;;;;;5017315;28;20473;-65
2021/10/21 00:52:38;;;;;;;5.20;4.73;;;18.50;99.90;;;;;;5015212;28;20534;-64
2021/10/21 00:55:08;;;;;;;4.90;4.40;;;18.50;99.90;;;;;;5014280;28;20768;-64
2021/10/21 00:57:36;;;;;;;5.50;5.07;;;18.40;99.90;;;;;;5022289;28;20491;-64
2021/10/21 01:00:05;;;;;;;5.17;4.60;;;18.50;99.90;;;;;;5019529;28;20962;-65
2021/10/21 01:02:31;;;;;;;4.60;4.30;;;18.50;99.90;;;;;;5022861;28;20464;-65
2021/10/21 01:04:58;;;;;;;6.03;4.43;;;18.50;99.90;;;;;;5020693;28;21027;-65
2021/10/21 01:07:25;;;;;;;4.80;4.40;;;18.50;99.90;;;;;;5034365;28;20523;-65
2021/10/21 01:09:53;;;;;;;5.47;5.07;;;18.50;99.90;;;;;;5020408;28;20847;-65
2021/10/21 01:12:22;;;;;;;5.87;4.70;;;18.50;99.90;;;;;;5027474;28;20547;-65
2021/10/21 01:14:49;;;;;;;4.67;4.37;;;18.40;99.90;;;;;;5031149;28;20476;-65
2021/10/21 01:17:16;;;;;;;7.00;4.57;;;18.50;99.90;;;;;;5024032;28;20479;-64
2021/10/21 01:19:44;;;;;;;4.97;4.43;;;18.50;99.90;;;;;;5018030;28;20523;-65
2021/10/21 01:22:12;;;;;;;4.43;4.03;;;18.50;99.90;;;;;;5014546;28;20834;-65
2021/10/21 01:24:39;;;;;;;6.13;4.50;;;18.50;99.90;;;;;;5027577;28;20967;-65
2021/10/21 01:27:06;;;;;;;4.13;3.93;;;18.50;99.90;;;;;;5003436;28;20470;-65
2021/10/21 01:29:33;;;;;;;3.90;3.60;;;18.50;99.90;;;;;;4998500;28;20473;-65
2021/10/21 01:32:01;;;;;;;5.57;4.70;;;18.50;99.90;;;;;;5003339;28;20550;-65
2021/10/21 01:34:28;;;;;;;6.47;5.00;;;18.50;99.90;;;;;;4994669;28;20470;-65
2021/10/21 01:36:55;;;;;;;4.60;4.20;;;18.50;99.90;;;;;;5010286;28;20479;-65
2021/10/21 01:39:24;;;;;;;4.87;4.30;;;18.50;99.90;;;;;;4995875;28;20466;-65
2021/10/21 01:41:51;;;;;;;6.70;6.10;;;18.50;99.90;;;;;;4994923;28;20484;-65
2021/10/21 01:44:18;;;;;;;5.00;4.60;;;18.50;99.90;;;;;;5009312;28;20484;-65
2021/10/21 01:46:45;;;;;;;6.17;4.80;;;18.50;99.90;;;;;;5001035;28;20482;-65
2021/10/21 01:49:12;;;;;;;4.60;4.30;;;18.40;99.90;;;;;;5001763;28;20476;-65
2021/10/21 01:51:39;;;;;;;4.83;4.43;;;18.40;99.90;;;;;;5000852;28;20500;-65
2021/10/21 01:54:06;;;;;;;5.03;4.13;;;18.50;99.90;;;;;;4993648;28;20965;-65
2021/10/21 01:56:35;;;;;;;5.97;4.53;;;18.40;99.90;;;;;;4996924;28;20564;-65
2021/10/21 01:59:02;;;;;;;4.60;4.20;;;18.40;99.90;;;;;;4995519;28;21001;-65
2021/10/21 02:01:29;;;;;;;6.03;5.53;;;18.40;99.90;;;;;;5007022;28;20480;-65
2021/10/21 02:03:56;;;;;;;4.43;4.13;;;18.40;99.90;;;;;;5001686;28;20536;-65
2021/10/21 02:06:23;;;;;;;4.17;3.87;;;18.30;99.90;;;;;;5013220;28;20472;-65
2021/10/21 02:08:50;;;;;;;6.80;5.73;;;18.30;99.90;;;;;;5004624;28;20506;-65
2021/10/21 02:11:17;;;;;;;4.33;3.93;;;18.40;99.90;;;;;;5007007;28;20476;-65
2021/10/21 02:13:45;;;;;;;4.70;4.30;;;18.40;99.90;;;;;;4997889;28;20512;-65
2021/10/21 02:16:12;;;;;;;3.53;3.23;;;18.40;99.90;;;;;;4996272;28;20489;-65
2021/10/21 02:18:42;;;;;;;4.10;3.80;;;18.40;99.90;;;;;;5003893;28;20474;-65
2021/10/21 02:21:09;;;;;;;4.13;3.83;;;18.40;99.90;;;;;;5009979;28;20473;-65
2021/10/21 02:23:36;;;;;;;4.43;4.13;;;18.40;99.90;;;;;;5003000;28;20532;-65
2021/10/21 02:26:03;;;;;;;3.50;3.30;;;18.40;99.90;;;;;;4993273;28;20466;-65
2021/10/21 02:28:30;;;;;;;3.50;3.20;;;18.40;99.90;;;;;;5004586;28;20539;-65
2021/10/21 02:30:58;;;;;;;3.67;3.40;;;18.50;99.90;;;;;;4994832;28;20957;-65
2021/10/21 02:33:25;;;;;;;7.13;3.60;;;18.40;99.90;;;;;;4993818;28;20478;-65
2021/10/21 02:35:52;;;;;;;3.40;3.20;;;18.40;99.90;;;;;;5005958;28;20472;-65
2021/10/21 02:38:19;;;;;;;3.97;3.10;;;18.40;99.90;;;;;;5001221;28;20482;-65
2021/10/21 02:40:46;;;;;;;2.73;2.40;;;18.40;99.90;;;;;;4993280;28;20482;-65
2021/10/21 02:43:16;;;;;;;4.40;4.00;;;18.40;99.90;;;;;;4996019;28;20462;-65
2021/10/21 02:45:43;;;;;;;2.63;2.43;;;18.40;99.90;;;;;;4994707;28;20477;-65
2021/10/21 02:48:11;;;;;;;5.17;3.03;;;18.30;99.90;;;;;;5004271;28;20465;-65
2021/10/21 02:50:38;;;;;;;2.70;2.50;;;18.40;99.90;;;;;;5005485;28;21256;-65
2021/10/21 02:53:05;;;;;;;3.30;2.67;;;18.30;99.90;;;;;;5005426;28;20477;-65
2021/10/21 02:55:32;;;;;;;2.60;2.40;;;18.40;99.90;;;;;;4997070;28;20466;-65
2021/10/21 02:57:58;;;;;;;2.63;2.43;;;18.40;99.90;;;;;;5000043;28;20887;-65
2021/10/21 03:00:25;;;;;;;2.90;2.20;;;18.40;99.90;;;;;;5006281;28;20532;-65
2021/10/21 03:02:52;;;;;;;2.57;2.37;;;18.30;99.90;;;;;;5006064;28;20501;-65
2021/10/21 03:05:21;;;;;;;3.00;2.80;;;18.30;99.90;;;;;;4999724;28;21050;-65
2021/10/21 03:07:48;;;;;;;3.00;2.50;;;18.40;99.90;;;;;;5012302;28;20474;-66
2021/10/21 03:10:14;;;;;;;3.03;2.73;;;18.40;99.90;;;;;;4999829;28;20501;-65
2021/10/21 03:12:42;;;;;;;3.70;2.80;;;18.40;99.90;;;;;;4999676;28;20856;-65
2021/10/21 03:15:10;;;;;;;3.10;2.90;;;18.40;99.90;;;;;;5004878;28;20478;-65
2021/10/21 03:17:41;;;;;;;3.00;2.80;;;18.40;99.90;;;;;;5006356;28;20475;-65
2021/10/21 03:20:10;;;;;;;3.40;3.20;;;18.40;99.90;;;;;;5001216;28;20487;-65
2021/10/21 03:22:39;;;;;;;3.30;2.40;;;18.40;99.90;;;;;;4999642;28;20470;-65
2021/10/21 03:25:07;;;;;;;4.90;2.87;;;18.40;99.90;;;;;;5003042;28;20564;-66
2021/10/21 03:27:34;;;;;;;2.20;2.10;;;18.40;99.90;;;;;;5006120;28;20520;-65
2021/10/21 03:30:01;;;;;;;2.43;2.23;;;18.40;99.90;;;;;;5002356;28;20473;-65
2021/10/21 03:32:28;;;;;;;2.60;2.40;;;18.50;99.90;;;;;;4999342;28;20469;-65
2021/10/21 03:34:55;;;;;;;4.47;4.10;;;18.50;99.90;;;;;;5002848;28;20466;-65
2021/10/21 03:37:22;;;;;;;2.60;2.40;;;18.50;99.90;;;;;;5005711;28;20474;-66
2021/10/21 03:39:51;;;;;;;2.70;2.50;;;18.50;99.90;;;;;;5002979;28;21037;-66
2021/10/21 03:42:18;;;;;;;2.70;2.50;;;18.50;99.90;;;;;;4999436;28;20504;-64
2021/10/21 03:44:45;;;;;;;2.43;2.30;;;18.50;99.90;;;;;;5002340;28;20536;-64
2021/10/21 03:47:12;;;;;;;2.57;2.37;;;18.40;99.90;;;;;;4992465;28;20864;-64
2021/10/21 03:49:39;;;;;;;2.43;2.23;;;18.40;99.90;;;;;;5010649;28;20473;-64
2021/10/21 03:52:06;;;;;;;3.03;2.83;;;18.40;99.90;;;;;;4999256;28;20536;-64
2021/10/21 03:54:33;;;;;;;2.37;2.17;;;18.40;99.90;;;;;;5006007;28;20466;-66
2021/10/21 03:57:02;;;;;;;2.57;2.27;;;18.40;99.90;;;;;;5007670;28;20473;-64
2021/10/21 03:59:29;;;;;;;2.70;2.50;;;18.40;99.90;;;;;;4992440;28;20466;-65
2021/10/21 04:01:57;;;;;;;2.40;2.20;;;18.40;99.90;;;;;;4992696;28;20469;-65
2021/10/21 04:04:24;;;;;;;2.40;2.00;;;18.40;99.90;;;;;;4999647;28;20536;-65
2021/10/21 04:06:51;;;;;;;4.23;2.83;;;18.40;99.90;;;;;;5006516;28;20472;-65
2021/10/21 04:09:18;;;;;;;2.50;2.30;;;18.30;99.90;;;;;;5004206;28;20543;-65
2021/10/21 04:11:44;;;;;;;2.07;1.97;;;18.30;99.90;;;;;;5005910;28;20847;-65
2021/10/21 04:14:13;;;;;;;2.40;2.20;;;18.30;99.90;;;;;;5000025;28;20473;-65
2021/10/21 04:16:40;;;;;;;1.93;1.83;;;18.30;99.90;;;;;;5000335;28;20473;-65
2021/10/21 04:19:07;;;;;;;3.57;3.23;;;18.30;99.90;;;;;;5007234;28;20790;-65
2021/10/21 04:21:34;;;;;;;3.10;1.70;;;18.20;99.90;;;;;;5009318;28;20851;-65
2021/10/21 04:24:01;;;;;;;3.47;2.20;;;18.20;99.90;;;;;;5004375;28;20479;-65
2021/10/21 04:26:27;;;;;;;2.83;1.90;;;18.20;99.90;;;;;;5002032;28;20549;-65
2021/10/21 04:28:55;;;;;;;3.90;1.43;;;18.10;99.90;;;;;;5006953;28;20481;-65
2021/10/21 04:31:23;;;;;;;2.50;1.83;;;18.00;99.90;;;;;;5008599;28;20531;-65
2021/10/21 04:33:50;;;;;;;1.90;1.60;;;18.00;99.90;;;;;;5005129;28;20481;-65
2021/10/21 04:36:17;;;;;;;2.10;1.90;;;17.90;99.90;;;;;;5001894;28;20470;-65
2021/10/21 04:38:44;;;;;;;1.67;1.57;;;17.90;99.90;;;;;;5005968;28;20548;-65
2021/10/21 04:41:11;;;;;;;2.90;1.37;;;17.70;99.90;;;;;;5010329;28;20557;-65
2021/10/21 04:43:37;;;;;;;1.60;1.40;;;17.70;99.90;;;;;;5015185;28;20465;-65
2021/10/21 04:46:04;;;;;;;1.40;1.30;;;17.60;99.90;;;;;;4998428;28;20980;-65
2021/10/21 04:48:33;;;;;;;1.40;1.17;;;17.60;99.90;;;;;;5004167;28;21013;-65
2021/10/21 04:51:00;;;;;;;1.53;1.43;;;17.50;99.90;;;;;;5011351;28;20536;-65
2021/10/21 04:53:26;;;;;;;1.60;1.50;;;17.40;99.90;;;;;;5005258;28;20465;-65
2021/10/21 04:55:53;;;;;;;1.70;1.20;;;17.40;99.90;;;;;;5004124;28;20819;-65
2021/10/21 04:58:20;;;;;;;2.30;1.70;;;17.30;99.90;;;;;;5014545;28;20473;-65
2021/10/21 05:00:47;;;;;;;1.53;1.37;;;17.30;99.90;;;;;;5001570;28;20465;-65
2021/10/21 05:03:14;;;;;;;2.40;2.07;;;17.20;99.90;;;;;;5004084;28;20557;-65
2021/10/21 05:05:43;;;;;;;1.57;1.30;;;17.20;99.90;;;;;;5012433;28;20540;-65
2021/10/21 05:08:10;;;;;;;1.90;1.17;;;17.20;99.90;;;;;;5014598;28;20546;-65
2021/10/21 05:10:37;;;;;;;3.60;1.60;;;17.20;99.90;;;;;;5001248;28;20469;-65
2021/10/21 05:13:04;;;;;;;3.00;1.50;;;17.20;99.90;;;;;;5003857;28;20470;-65
2021/10/21 05:15:31;;;;;;;2.60;1.47;;;17.10;99.90;;;;;;5007834;28;20477;-65
2021/10/21 05:17:58;;;;;;;2.20;1.40;;;17.10;99.90;;;;;;5006505;28;20477;-65
2021/10/21 05:20:25;;;;;;;5.10;1.57;;;17.10;99.90;;;;;;5000901;28;20477;-65
2021/10/21 05:22:53;;;;;;;1.53;1.43;;;17.20;99.90;;;;;;5004330;28;20967;-65
2021/10/21 05:25:20;;;;;;;4.93;1.50;;;17.20;99.90;;;;;;5007121;28;20469;-65
2021/10/21 05:27:47;;;;;;;1.83;1.50;;;17.20;99.90;;;;;;4994333;28;20964;-65
2021/10/21 05:30:14;;;;;;;4.07;2.90;;;17.20;99.90;;;;;;4993447;28;20532;-65
2021/10/21 05:32:41;;;;;;;4.07;2.40;;;17.20;99.90;;;;;;4994301;28;20812;-65
2021/10/21 05:35:08;;;;;;;1.87;1.47;;;17.20;99.90;;;;;;4994744;28;20477;-65
2021/10/21 05:37:35;;;;;;;3.10;1.27;;;17.20;99.90;;;;;;4994867;28;20473;-65
2021/10/21 05:40:05;;;;;;;1.57;1.13;;;17.20;99.90;;;;;;4994559;28;20544;-65
2021/10/21 05:42:32;;;;;;;1.43;1.27;;;17.10;99.90;;;;;;5000808;28;20468;-65
2021/10/21 05:44:59;;;;;;;1.93;1.30;;;17.10;99.90;;;;;;5014317;28;20519;-65
2021/10/21 05:47:26;;;;;;;2.83;1.30;;;17.10;99.90;;;;;;5013802;28;20465;-65
2021/10/21 05:49:53;;;;;;;2.50;1.30;;;17.00;99.90;;;;;;5015575;28;20476;-65
2021/10/21 05:52:24;;;;;;;3.50;1.73;;;17.00;99.90;;;;;;5013398;28;20461;-65
2021/10/21 05:54:51;;;;;;;1.60;1.50;;;17.00;99.90;;;;;;5029841;28;20472;-65
2021/10/21 05:57:19;;;;;;;2.00;1.30;;;17.00;99.90;;;;;;5028464;28;20496;-65
2021/10/21 05:59:46;;;;;;;3.67;1.40;;;17.00;99.90;;;;;;5033603;28;20522;-65
2021/10/21 06:02:14;;;;;;;2.83;2.40;;;17.10;99.90;;;;;;5019367;28;20816;-65
2021/10/21 06:04:41;;;;;;;2.40;2.20;;;17.10;99.90;;;;;;5014027;28;20991;-65
2021/10/21 06:07:08;;;;;;;4.20;2.10;;;17.20;99.90;;;;;;5024080;28;20522;-66
2021/10/21 06:09:35;;;;;;;3.53;2.17;;;17.20;99.90;;;;;;5013628;28;21285;-65
2021/10/21 06:12:02;;;;;;;2.00;1.10;;;17.20;99.90;;;;;;5025590;28;20526;-66
2021/10/21 06:14:31;;;;;;;1.60;1.33;;;17.30;99.90;;;;;;5030248;28;20477;-66
2021/10/21 06:16:59;;;;;;;1.57;1.47;;;17.30;99.90;;;;;;5013684;28;20465;-66
2021/10/21 06:19:26;;;;;;;1.70;1.60;;;17.30;99.90;;;;;;5027315;28;20523;-66
2021/10/21 06:22:02;;;;;;;3.77;2.07;;;17.30;99.90;;;;;;5033468;28;20482;-65
2021/10/21 06:24:29;;;;;;;3.33;3.00;;;17.30;99.90;;;;;;5032841;28;20491;-65
2021/10/21 06:26:57;;;;;;;7.10;4.50;;;17.40;99.90;;;;;;5033257;28;20464;-65
2021/10/21 06:29:24;;;;;;;6.80;2.60;;;17.30;99.90;;;;;;5032758;28;20503;-65
2021/10/21 06:31:54;;;;;;;3.70;3.37;;;17.40;99.90;;;;;;5033336;28;20846;-65
2021/10/21 06:34:21;;;;;;;3.60;2.20;;;17.40;99.90;;;;;;5032917;28;20468;-65
2021/10/21 06:36:48;;;;;;;1.77;1.40;;;17.50;99.90;;;;;;5033046;28;20475;-65
2021/10/21 06:39:15;;;;;;;1.30;1.17;;;17.40;99.90;;;;;;5032276;28;20479;-65
2021/10/21 06:41:43;;;;;;;3.53;1.50;;;17.50;99.90;;;;;;5032598;28;21004;-64
2021/10/21 06:44:09;;;;;;;6.53;3.63;;;17.50;99.90;;;;;;5022807;28;20473;-64
2021/10/21 06:46:36;;;;;;;5.60;5.00;;;17.50;99.90;;;;;;5012895;28;20954;-64
2021/10/21 06:49:05;;;;;;;2.60;2.40;;;17.60;99.90;;;;;;5017854;28;20526;-65
2021/10/21 06:51:31;;;;;;;6.73;4.10;;;17.60;99.90;;;;;;5032408;28;20464;-64
2021/10/21 06:53:58;;;;;;;4.53;3.63;;;17.60;99.90;;;;;;5032805;28;20467;-64
2021/10/21 06:56:25;;;;;;;2.23;1.70;;;17.60;99.90;;;;;;5032627;28;20534;-64
2021/10/21 06:58:52;;;;;;;1.40;1.30;;;17.60;99.90;;;;;;5032420;28;20479;-64
2021/10/21 07:01:19;;;;;;;5.50;1.80;;;17.60;99.90;;;;;;5032312;28;21016;-65
2021/10/21 07:03:46;;;;;;;6.10;2.07;;;17.60;99.90;;;;;;5032824;28;20538;-64
2021/10/21 07:06:14;;;;;;;4.57;1.50;;;17.60;99.90;;;;;;5032775;28;20530;-64
2021/10/21 07:08:41;;;;;;;1.93;1.27;;;17.60;99.90;;;;;;5032512;28;20452;-64
2021/10/21 07:11:09;;;;;;;3.67;1.77;;;17.50;99.90;;;;;;5032667;28;20472;-64
2021/10/21 07:13:36;;;;;;;6.27;1.90;;;17.50;99.90;;;;;;5032213;28;20476;-64
2021/10/21 07:16:03;;;;;;;3.47;1.33;;;17.50;99.30;;;;;;5032858;28;20471;-64
2021/10/21 07:18:32;;;;;;;4.57;1.80;;;17.40;99.10;;;;;;5030141;28;20561;-65
2021/10/21 07:20:59;;;;;;;2.10;1.30;;;17.40;99.10;;;;;;5012925;28;20540;-64
2021/10/21 07:23:27;;;;;;;6.07;3.10;;;17.40;98.70;;;;;;5012302;28;20552;-65
2021/10/21 07:25:54;;;;;;;5.03;2.17;;;17.30;98.30;;;;;;5012924;28;20457;-64
2021/10/21 07:28:22;;;;;;;1.87;1.40;;;17.30;98.20;;;;;;5012571;28;20469;-64
2021/10/21 07:30:52;;;;;;;10.40;1.30;;;17.30;97.80;;;;;;5012729;28;20472;-65
2021/10/21 07:33:19;;;;;;;10.57;2.67;;;17.20;97.30;;;;;;5012281;28;20461;-65
2021/10/21 07:35:46;;;;;;;6.93;2.30;;;17.20;97.30;;;;;;5012698;28;20959;-65
2021/10/21 07:38:13;;;;;;;8.60;2.00;;;17.20;97.30;;;;;;5012700;28;20540;-65
2021/10/21 07:40:42;;;;;;;9.77;3.63;;;17.10;97.10;;;;;;5012124;28;20939;-65
2021/10/21 07:43:10;;;;;;;6.70;4.13;;;17.10;97.00;;;;;;5002391;28;20461;-65
2021/10/21 07:45:37;;;;;;;6.60;2.50;;;17.10;96.60;;;;;;4992803;28;20466;-65
2021/10/21 07:48:06;;;;;;;6.17;2.23;;;17.10;96.70;;;;;;4993179;28;20469;-65
2021/10/21 07:50:33;;;;;;;4.47;1.60;;;17.10;96.60;;;;;;5009182;28;20519;-65
2021/10/21 07:53:00;;;;;;;3.30;1.90;;;17.10;96.30;;;;;;5016061;28;20527;-65
2021/10/21 07:55:29;;;;;;;5.50;2.00;;;17.10;96.50;;;;;;5015848;28;20473;-65
2021/10/21 07:57:57;;;;;;;4.93;2.20;;;17.10;96.30;;;;;;5016386;28;20530;-65
2021/10/21 08:00:24;;;;;;;6.37;1.10;;;17.10;96.00;;;;;;5015745;28;20964;-65
2021/10/21 08:02:51;;;;;;;5.17;1.93;;;17.20;95.90;;;;;;5016259;28;20531;-66
2021/10/21 08:05:18;;;;;;;7.67;2.37;;;17.10;96.00;;;;;;5016080;28;20480;-65
2021/10/21 08:07:47;;;;;;;5.10;1.83;;;17.20;96.00;;;;;;5015665;28;20475;-65
2021/10/21 08:10:15;;;;;;;19.43;4.90;;;17.30;95.80;;;;;;5015949;28;20571;-65
2021/10/21 08:12:43;;;;;;;7.30;1.80;;;17.30;95.60;;;;;;5015521;28;20469;-65
2021/10/21 08:15:12;;;;;;;5.93;1.53;;;17.20;95.40;;;;;;5016049;28;20517;-65
2021/10/21 08:17:41;;;;;;;4.50;1.60;;;17.20;95.10;;;;;;5015491;28;20471;-65
2021/10/21 08:20:11;;;;;;;5.77;1.40;;;17.20;95.00;;;;;;4996270;28;20484;-65
2021/10/21 08:22:38;;;;;;;2.20;1.13;;;17.20;94.80;;;;;;4996070;28;20461;-65
2021/10/21 08:25:05;;;;;;;3.93;1.40;;;17.20;95.00;;;;;;4996188;28;20458;-65
2021/10/21 08:27:32;;;;;;;4.47;3.33;;;17.20;94.70;;;;;;4995949;28;20470;-65
2021/10/21 08:29:59;;;;;;;3.50;1.40;;;17.20;94.90;;;;;;4996227;28;20485;-65
2021/10/21 08:32:28;;;;;;;6.50;3.07;;;17.20;94.50;;;;;;4995794;28;20462;-65
2021/10/21 08:34:54;;;;;;;9.67;1.80;;;17.20;94.50;;;;;;4996164;28;20976;-65
2021/10/21 08:37:22;;;;;;;3.90;2.53;;;17.30;94.60;;;;;;4996044;28;20520;-65
2021/10/21 08:39:50;;;;;;;2.50;1.30;;;17.30;94.30;;;;;;4995462;28;20493;-65
2021/10/21 08:42:19;;;;;;;7.07;3.50;;;17.30;94.10;;;;;;5008988;28;20461;-66
2021/10/21 08:44:47;;;;;;;5.70;2.10;;;17.20;94.00;;;;;;5000269;28;20450;-65
2021/10/21 08:47:17;;;;;;;5.27;2.10;;;17.30;94.30;;;;;;4995776;28;20532;-65
2021/10/21 08:49:47;;;;;;;6.30;1.30;;;17.20;94.00;;;;;;5005586;28;20527;-65
2021/10/21 08:52:14;;;;;;;3.77;1.37;;;17.30;93.90;;;;;;5015268;28;20469;-65
2021/10/21 08:54:41;;;;;;;6.40;1.30;;;17.20;93.90;;;;;;5014866;28;20475;-66
2021/10/21 08:57:12;;;;;;;3.63;1.23;;;17.30;93.90;;;;;;5015155;28;20476;-65
2021/10/21 08:59:40;;;;;;;6.60;1.50;;;17.30;94.10;;;;;;5014756;28;21059;-65
2021/10/21 09:02:11;;;;;;;3.93;1.30;;;17.30;94.00;;;;;;5013790;28;20496;-65
2021/10/21 09:04:56;;;;;;;9.40;1.40;;;17.40;93.90;;;;;;5011509;28;20465;-65
2021/10/21 09:10:11;;;;;;;8.93;2.13;;;17.40;93.90;;;;;;5012310;28;20487;-64
2021/10/21 09:12:43;;;;;;;9.20;1.60;;;17.30;93.90;;;;;;5012649;28;20483;-65
2021/10/21 09:15:13;;;;;;;4.13;1.10;;;17.30;94.00;;;;;;5013088;28;20473;-65
2021/10/21 09:17:40;;;;;;;8.60;1.60;;;17.20;93.80;;;;;;5014164;28;20461;-65
2021/10/21 09:20:42;;;;;;;10.53;2.07;;;17.20;94.20;;;;;;4994588;28;20493;-66
2021/10/21 09:23:12;;;;;;;3.10;1.63;;;17.20;94.20;;;;;;4995151;28;20473;-65
2021/10/21 09:25:41;;;;;;;3.33;1.60;;;17.20;94.30;;;;;;4995421;28;20477;-65
2021/10/21 09:28:20;;;;;;;6.43;1.37;;;17.20;94.20;;;;;;4994609;28;20466;-65
2021/10/21 09:30:56;;;;;;;2.00;1.00;;;17.30;94.40;;;;;;4994905;28;20505;-65
2021/10/21 09:33:24;;;;;;;6.80;3.60;;;17.30;94.20;;;;;;4994817;28;20482;-65
2021/10/21 09:35:54;;;;;;;5.60;1.13;;;17.30;94.50;;;;;;4995054;28;20474;-65
2021/10/21 09:38:27;;;;;;;6.87;1.30;;;17.30;94.60;;;;;;4994471;28;20473;-65
2021/10/21 09:40:55;;;;;;;3.40;1.13;;;17.30;95.00;;;;;;4996408;28;21055;-65
2021/10/21 09:43:30;;;;;;;6.10;1.13;;;17.40;95.30;;;;;;5010477;28;20458;-65
2021/10/21 09:45:57;;;;;;;6.10;1.27;;;17.40;95.50;;;;;;4995035;28;20544;-65
2021/10/21 09:48:24;;;;;;;2.93;1.00;;;17.30;95.20;;;;;;4994479;28;20469;-65
2021/10/21 09:50:51;;;;;;;13.90;2.20;;;17.40;94.80;;;;;;4994515;28;20839;-65
2021/10/21 09:53:19;;;;;;;3.50;1.40;;;17.40;94.70;;;;;;4994304;28;20836;-65
2021/10/21 09:55:50;;;;;;;9.20;3.90;;;17.30;94.50;;;;;;4994487;28;20501;-65
2021/10/21 09:58:18;;;;;;;8.27;3.03;;;17.40;94.40;;;;;;4994173;28;20786;-65
2021/10/21 10:00:45;;;;;;;8.33;2.43;;;17.30;94.20;;;;;;4999513;28;20476;-65
2021/10/21 10:03:16;;;;;;;9.37;1.77;;;17.40;94.50;;;;;;5013303;28;20477;-65
2021/10/21 10:05:44;;;;;;;4.37;1.30;;;17.40;94.40;;;;;;5009891;28;20469;-65
2021/10/21 10:08:12;;;;;;;6.10;2.60;;;17.40;94.60;;;;;;5004046;28;20853;-64
2021/10/21 10:10:41;;;;;;;17.33;2.33;;;17.40;94.50;;;;;;5007714;28;20474;-65
2021/10/21 10:13:11;;;;;;;11.73;1.30;;;17.30;94.40;;;;;;5003484;28;20527;-65
2021/10/21 10:15:39;;;;;;;4.90;1.17;;;17.30;94.50;;;;;;4996298;28;20513;-66
2021/10/21 10:18:08;;;;;;;15.10;4.63;;;17.20;94.20;;;;;;5004665;28;20474;-66
2021/10/21 10:20:36;;;;;;;16.40;3.00;;;17.20;94.90;;;;;;5014392;28;20815;-64
2021/10/21 10:23:05;;;;;;;7.67;1.83;;;17.20;94.90;;;;;;5021209;28;20552;-64
2021/10/21 10:25:32;;;;;;;5.70;2.57;;;17.20;95.20;;;;;;5026810;28;20489;-65
2021/10/21 10:28:00;;;;;;;7.87;1.60;;;17.20;95.30;;;;;;5025632;28;20494;-64
2021/10/21 10:30:48;;;;;;;5.47;1.60;;;17.20;95.60;;;;;;5022630;28;20469;-64
2021/10/21 10:33:42;;;;;;;6.73;3.60;;;17.10;97.40;;;;;;5015069;28;20469;-64
2021/10/21 10:36:28;;;;;;;3.67;2.70;;;17.00;97.90;;;;;;5032560;28;20467;-64
2021/10/21 10:38:57;;;;;;;7.70;2.80;;;17.00;98.40;;;;;;5021626;28;20476;-65
2021/10/21 10:41:52;;;;;;;7.87;2.30;;;17.00;98.30;;;;;;5023088;28;20464;-64
2021/10/21 10:44:56;;;;;;;6.43;2.50;;;17.00;98.60;;;;;;5013923;28;20479;-64
2021/10/21 10:47:42;;;;;;;3.50;1.33;;;17.00;98.80;;;;;;5023838;28;20476;-64
2021/10/21 10:50:16;;;;;;;4.60;2.20;;;17.00;98.80;;;;;;5019751;28;20480;-65
2021/10/21 10:52:49;;;;;;;6.13;3.83;;;16.90;99.30;;;;;;5019512;28;20480;-64
2021/10/21 10:55:18;;;;;;;10.20;4.63;;;16.90;99.90;;;;;;5023258;28;20551;-64
2021/10/21 10:57:59;;;;;;;8.00;2.83;;;16.90;99.90;;;;;;5026253;28;20484;-64
2021/10/21 11:00:46;;;;;;;5.00;3.00;;;16.80;99.90;;;;;;5020305;28;20950;-64
2021/10/21 11:03:13;;;;;;;2.90;1.60;;;16.70;99.90;;;;;;5029044;28;20549;-64
2021/10/21 11:05:58;;;;;;;3.00;2.00;;;16.70;99.90;;;;;;5032526;28;21233;-64
2021/10/21 11:08:49;;;;;;;2.17;1.30;;;16.60;99.90;;;;;;5026991;28;20827;-64
2021/10/21 11:11:53;;;;;;;5.30;2.03;;;16.50;99.90;;;;;;5031232;28;20464;-64
2021/10/21 11:14:21;;;;;;;5.73;1.53;;;16.40;99.90;;;;;;5026538;28;20479;-64
2021/10/21 11:16:54;;;;;;;2.80;1.70;;;16.30;99.90;;;;;;5032979;28;20468;-64
2021/10/21 11:19:46;;;;;;;4.50;1.60;;;16.30;99.90;;;;;;5027673;28;20468;-64
2021/10/21 11:22:40;;;;;;;2.00;1.80;;;16.10;99.90;;;;;;5022603;28;20535;-64
2021/10/21 11:25:13;;;;;;;4.20;1.63;;;16.00;99.90;;;;;;5012553;28;20835;-64
2021/10/21 11:27:42;;;;;;;2.30;1.83;;;15.90;99.90;;;;;;5034797;28;20471;-64
2021/10/21 11:30:13;;;;;;;3.13;1.03;;;15.90;99.90;;;;;;5027471;28;20507;-64
2021/10/21 11:32:42;;;;;;;2.20;1.43;;;15.80;99.90;;;;;;5016802;28;20469;-64
2021/10/21 11:35:14;;;;;;;2.63;1.27;;;15.80;99.90;;;;;;5016483;28;20554;-64
2021/10/21 11:37:45;;;;;;;3.00;1.30;;;15.80;99.90;;;;;;5016848;28;20546;-64
2021/10/21 11:40:24;;;;;;;3.20;1.87;;;15.80;99.90;;;;;;5016192;28;20457;-64
2021/10/21 11:42:55;;;;;;;1.53;1.30;;;15.80;99.90;;;;;;5026384;28;20519;-64
2021/10/21 11:45:27;;;;;;;7.80;1.97;;;15.70;99.90;;;;;;5016381;28;21041;-64
2021/10/21 11:48:02;;;;;;;4.43;2.30;;;15.60;99.90;;;;;;5016632;28;21026;-64
2021/10/21 11:50:33;;;;;;;2.93;1.80;;;15.40;99.90;;;;;;5034270;28;20572;-64
2021/10/21 11:53:02;;;;;;;1.40;1.30;;;15.30;99.90;;;;;;5036191;28;20495;-64
2021/10/21 11:55:30;;;;;;;1.50;1.30;;;15.30;99.90;;;;;;5034685;28;20502;-64
2021/10/21 11:57:57;;;;;;;1.73;1.47;;;15.20;99.90;;;;;;5027802;28;20479;-64
2021/10/21 12:00:27;;;;;;;4.63;3.10;;;15.20;99.90;;;;;;5015710;28;20999;-64
2021/10/21 12:02:56;;;;;;;2.03;1.60;;;15.20;99.90;;;;;;5031932;28;21004;-64
2021/10/21 12:05:28;;;;;;;2.70;2.07;;;15.10;99.90;;;;;;5035806;28;20467;-64
2021/10/21 12:07:56;;;;;;;3.90;2.50;;;15.10;99.90;;;;;;5036008;28;20460;-64
2021/10/21 12:10:33;;;;;;;5.57;5.00;;;15.10;99.90;;;;;;5035210;28;20538;-64
2021/10/21 12:13:02;;;;;;;2.10;1.67;;;15.10;99.90;;;;;;5035789;28;20471;-64
2021/10/21 12:15:31;;;;;;;2.43;2.23;;;15.20;99.90;;;;;;5022626;28;20854;-64
2021/10/21 12:18:03;;;;;;;2.33;2.10;;;15.20;99.90;;;;;;5033610;28;20472;-64
2021/10/21 12:20:36;;;;;;;3.60;2.37;;;15.30;99.90;;;;;;5022064;28;20480;-64
2021/10/21 12:23:15;;;;;;;3.27;1.60;;;15.30;99.90;;;;;;5027437;28;20480;-64
2021/10/21 12:25:44;;;;;;;6.23;2.20;;;15.40;99.90;;;;;;5028602;28;20464;-64
2021/10/21 12:28:11;;;;;;;3.20;2.00;;;15.40;99.90;;;;;;5026144;28;20559;-64
2021/10/21 12:30:39;;;;;;;3.53;1.40;;;15.40;99.90;;;;;;5030604;28;20472;-64
2021/10/21 12:33:07;;;;;;;2.60;1.73;;;15.50;99.90;;;;;;5024864;28;20562;-64
2021/10/21 12:35:35;;;;;;;4.00;1.77;;;15.60;99.90;;;;;;5028479;28;20473;-64
2021/10/21 12:38:08;;;;;;;2.17;1.40;;;15.60;99.70;;;;;;5025766;28;20868;-64
2021/10/21 12:40:38;;;;;;;4.50;1.37;;;15.50;99.70;;;;;;5029182;28;20480;-65
2021/10/21 12:43:17;;;;;;;3.47;1.83;;;15.50;99.50;;;;;;5018262;28;20558;-64
2021/10/21 12:45:44;;;;;;;3.73;1.73;;;15.60;99.20;;;;;;5023039;28;20518;-64
2021/10/21 12:48:25;;;;;;;3.27;1.40;;;15.60;99.10;;;;;;5021612;28;20476;-64
2021/10/21 12:50:54;;;;;;;9.23;3.30;;;15.50;99.10;;;;;;5020128;28;20468;-64
2021/10/21 12:53:21;;;;;;;2.60;1.60;;;15.50;98.90;;;;;;5001727;28;20500;-64
2021/10/21 12:55:48;;;;;;;4.33;2.10;;;15.50;98.80;;;;;;5014928;28;20547;-64
2021/10/21 12:58:23;;;;;;;3.43;1.83;;;15.60;99.00;;;;;;5001950;28;20473;-64